createdAt,value
2019-05-30T00:01:54.165Z,91.80
2019-05-30T00:04:24.772Z,91.90
2019-05-30T00:06:58.640Z,91.90
2019-05-30T00:09:29.317Z,91.90
2019-05-30T00:12:00.830Z,91.60
2019-05-30T00:14:31.465Z,91.90
2019-05-30T00:17:03.021Z,91.90
2019-05-30T00:19:34.165Z,91.90
2019-05-30T00:22:05.614Z,91.90
2019-05-30T00:24:36.278Z,91.80
2019-05-30T00:27:06.762Z,91.90
2019-05-30T00:29:37.212Z,91.80
2019-05-30T00:32:07.926Z,91.90
2019-05-30T00:34:38.536Z,91.90
2019-05-30T00:37:09.143Z,91.90
2019-05-30T00:39:39.651Z,91.90
2019-05-30T00:42:10.161Z,91.90
2019-05-30T00:44:40.636Z,91.90
2019-05-30T00:47:11.098Z,91.90
2019-05-30T00:49:41.593Z,91.90
2019-05-30T00:52:12.060Z,91.90
2019-05-30T00:54:45.530Z,91.90
2019-05-30T00:57:16.039Z,91.90
2019-05-30T00:59:46.509Z,91.90
2019-05-30T01:02:16.970Z,91.90
2019-05-30T01:04:47.398Z,91.90
2019-05-30T01:07:17.953Z,91.90
2019-05-30T01:09:49.970Z,91.80
2019-05-30T01:12:20.587Z,91.80
2019-05-30T01:14:51.068Z,91.80
2019-05-30T01:17:21.667Z,91.80
2019-05-30T01:19:52.151Z,91.70
2019-05-30T01:22:23.140Z,91.80
2019-05-30T01:24:54.218Z,91.70
2019-05-30T01:27:25.566Z,91.70
2019-05-30T01:29:57.321Z,91.70
2019-05-30T01:32:30.765Z,91.70
2019-05-30T01:35:02.186Z,91.60
2019-05-30T01:37:32.797Z,91.70
2019-05-30T01:40:04.225Z,91.70
2019-05-30T01:42:34.898Z,91.70
2019-05-30T01:45:06.646Z,91.70
2019-05-30T01:47:37.171Z,91.60
2019-05-30T01:50:09.115Z,91.60
2019-05-30T01:52:39.937Z,91.60
2019-05-30T01:55:11.354Z,91.60
2019-05-30T01:57:41.850Z,91.50
2019-05-30T02:00:20.571Z,91.60
2019-05-30T02:02:45.730Z,91.60
2019-05-30T02:05:19.589Z,91.60
2019-05-30T02:07:50.114Z,91.60
2019-05-30T02:10:20.577Z,91.60
2019-05-30T02:12:51.228Z,91.60
2019-05-30T02:15:25.389Z,91.60
2019-05-30T02:17:55.973Z,91.60
2019-05-30T02:20:26.574Z,91.60
2019-05-30T02:22:57.171Z,91.60
2019-05-30T02:25:27.640Z,91.60
2019-05-30T02:27:58.140Z,91.60
2019-05-30T02:30:28.593Z,92.00
2019-05-30T02:33:00.600Z,92.10
2019-05-30T02:35:31.256Z,92.10
2019-05-30T02:38:03.006Z,92.00
2019-05-30T02:40:33.842Z,92.40
2019-05-30T02:43:05.803Z,92.00
2019-05-30T02:45:36.763Z,92.00
2019-05-30T02:48:07.502Z,92.00
2019-05-30T02:50:38.044Z,92.00
2019-05-30T02:53:10.483Z,92.00
2019-05-30T02:55:41.049Z,92.00
2019-05-30T02:58:12.868Z,91.90
2019-05-30T03:00:43.911Z,91.90
2019-05-30T03:03:15.691Z,91.90
2019-05-30T03:05:46.129Z,91.90
2019-05-30T03:08:16.668Z,91.80
2019-05-30T03:10:47.402Z,91.80
2019-05-30T03:13:18.089Z,91.80
2019-05-30T03:15:48.830Z,91.70
2019-05-30T03:18:21.690Z,91.70
2019-05-30T03:20:54.800Z,91.70
2019-05-30T03:23:26.711Z,91.70
2019-05-30T03:25:57.183Z,91.70
2019-05-30T03:28:27.716Z,91.60
2019-05-30T03:30:59.683Z,91.70
2019-05-30T03:33:38.774Z,91.70
2019-05-30T03:36:08.961Z,91.70
2019-05-30T03:38:34.647Z,91.60
2019-05-30T03:41:06.765Z,91.70
2019-05-30T03:43:37.466Z,91.70
2019-05-30T03:46:14.975Z,91.70
2019-05-30T03:48:49.614Z,91.80
2019-05-30T03:51:22.252Z,91.80
2019-05-30T03:53:53.245Z,91.90
2019-05-30T03:56:34.258Z,91.90
2019-05-30T03:59:28.581Z,92.00
2019-05-30T04:02:22.393Z,92.00
2019-05-30T04:05:06.789Z,92.10
2019-05-30T04:07:44.537Z,92.10
2019-05-30T04:10:19.697Z,92.20
2019-05-30T04:13:29.180Z,92.20
2019-05-30T04:15:59.667Z,92.30
2019-05-30T04:18:30.098Z,92.40
2019-05-30T04:21:01.222Z,92.50
2019-05-30T04:23:31.687Z,92.50
2019-05-30T04:26:02.267Z,92.60
2019-05-30T04:28:32.904Z,92.70
2019-05-30T04:31:03.586Z,92.70
2019-05-30T04:33:34.242Z,92.80
2019-05-30T04:36:08.259Z,92.70
2019-05-30T04:38:38.775Z,92.80
2019-05-30T04:41:11.149Z,92.80
2019-05-30T04:43:41.695Z,92.70
2019-05-30T04:46:17.281Z,92.70
2019-05-30T04:48:48.297Z,92.80
2019-05-30T04:51:21.314Z,92.30
2019-05-30T04:53:51.264Z,92.30
2019-05-30T04:56:22.246Z,92.30
2019-05-30T04:58:52.886Z,92.30
2019-05-30T05:01:23.479Z,92.30
2019-05-30T05:03:54.070Z,92.40
2019-05-30T05:06:25.693Z,92.40
2019-05-30T05:08:56.170Z,92.40
2019-05-30T05:11:26.714Z,92.40
2019-05-30T05:13:57.527Z,92.40
2019-05-30T05:16:35.401Z,92.40
2019-05-30T05:19:00.336Z,92.50
2019-05-30T05:21:31.015Z,92.40
2019-05-30T05:24:01.876Z,92.50
2019-05-30T05:26:33.869Z,92.50
2019-05-30T05:29:04.418Z,92.40
2019-05-30T05:31:35.089Z,92.40
2019-05-30T05:34:05.791Z,92.40
2019-05-30T05:36:36.346Z,92.50
2019-05-30T05:39:08.518Z,92.40
2019-05-30T05:41:40.678Z,92.30
2019-05-30T05:44:11.277Z,92.40
2019-05-30T05:46:41.994Z,92.40
2019-05-30T05:49:12.574Z,92.50
2019-05-30T05:51:45.389Z,92.60
2019-05-30T05:54:16.821Z,92.60
2019-05-30T05:56:47.420Z,92.50
2019-05-30T05:59:18.913Z,92.60
2019-05-30T06:01:51.570Z,92.60
2019-05-30T06:04:23.134Z,92.60
2019-05-30T06:06:53.829Z,92.60
2019-05-30T06:09:26.204Z,92.60
2019-05-30T06:11:56.740Z,92.60
2019-05-30T06:14:28.146Z,92.60
2019-05-30T06:16:58.720Z,92.60
2019-05-30T06:19:44.979Z,92.60
2019-05-30T06:22:01.518Z,92.60
2019-05-30T06:24:31.966Z,92.60
2019-05-30T06:27:02.493Z,92.70
2019-05-30T06:29:33.063Z,92.60
2019-05-30T06:32:04.872Z,92.60
2019-05-30T06:34:39.362Z,92.60
2019-05-30T06:37:07.665Z,92.60
2019-05-30T06:39:38.201Z,92.70
2019-05-30T06:42:08.725Z,92.60
2019-05-30T06:44:39.234Z,93.10
2019-05-30T06:47:09.908Z,92.80
2019-05-30T06:49:40.372Z,92.90
2019-05-30T06:52:12.170Z,93.00
2019-05-30T06:54:43.680Z,93.00
2019-05-30T06:57:14.247Z,93.00
2019-05-30T06:59:44.709Z,92.90
2019-05-30T07:02:17.196Z,92.80
2019-05-30T07:04:52.200Z,92.80
2019-05-30T07:07:20.100Z,92.70
2019-05-30T07:09:50.742Z,92.50
2019-05-30T07:12:21.275Z,92.40
2019-05-30T07:14:51.805Z,92.30
2019-05-30T07:17:23.233Z,92.10
2019-05-30T07:19:54.067Z,92.10
2019-05-30T07:22:25.602Z,92.00
2019-05-30T07:24:56.277Z,91.90
2019-05-30T07:27:27.832Z,91.70
2019-05-30T07:29:59.781Z,91.60
2019-05-30T07:32:30.527Z,91.50
2019-05-30T07:35:06.815Z,91.30
2019-05-30T07:37:34.378Z,91.20
2019-05-30T07:40:05.825Z,91.30
2019-05-30T07:42:36.303Z,91.00
2019-05-30T07:45:11.819Z,90.90
2019-05-30T07:47:42.582Z,90.90
2019-05-30T07:50:13.880Z,90.80
2019-05-30T07:52:44.868Z,90.70
2019-05-30T07:55:15.987Z,90.70
2019-05-30T07:57:47.346Z,90.60
2019-05-30T08:00:20.423Z,90.50
2019-05-30T08:02:51.349Z,90.40
2019-05-30T08:05:24.719Z,90.30
2019-05-30T08:07:54.228Z,90.20
2019-05-30T08:10:27.762Z,90.20
2019-05-30T08:12:58.326Z,90.30
2019-05-30T08:15:29.327Z,90.20
2019-05-30T08:17:59.788Z,90.20
2019-05-30T08:20:31.678Z,90.10
2019-05-30T08:23:02.913Z,90.20
2019-05-30T08:25:34.260Z,90.20
2019-05-30T08:28:05.701Z,90.30
2019-05-30T08:30:36.688Z,90.30
2019-05-30T08:33:08.641Z,90.30
2019-05-30T08:35:49.167Z,90.20
2019-05-30T08:38:11.759Z,90.20
2019-05-30T08:40:42.381Z,90.20
2019-05-30T08:43:13.031Z,90.20
2019-05-30T08:45:49.999Z,90.10
2019-05-30T08:48:20.968Z,90.00
2019-05-30T08:50:53.521Z,89.60
2019-05-30T08:53:24.244Z,89.50
2019-05-30T08:55:56.019Z,89.10
2019-05-30T08:58:26.770Z,88.80
2019-05-30T09:00:57.288Z,87.90
2019-05-30T09:03:27.851Z,88.00
2019-05-30T09:06:03.812Z,88.20
2019-05-30T09:08:31.171Z,88.20
2019-05-30T09:11:04.031Z,87.30
2019-05-30T09:13:34.744Z,87.70
2019-05-30T09:16:05.372Z,87.70
2019-05-30T09:18:37.958Z,86.70
2019-05-30T09:21:08.804Z,87.20
2019-05-30T09:23:41.019Z,87.40
2019-05-30T09:26:11.553Z,87.50
2019-05-30T09:28:46.151Z,87.70
2019-05-30T09:31:16.786Z,87.70
2019-05-30T09:33:48.556Z,87.80
2019-05-30T09:36:19.241Z,87.80
2019-05-30T09:38:50.562Z,87.40
2019-05-30T09:41:21.086Z,87.50
2019-05-30T09:43:51.730Z,87.50
2019-05-30T09:46:22.398Z,87.60
2019-05-30T09:48:52.873Z,87.50
2019-05-30T09:51:26.456Z,87.00
2019-05-30T09:53:57.050Z,87.40
2019-05-30T09:56:27.542Z,87.30
2019-05-30T09:58:59.942Z,87.60
2019-05-30T10:01:31.920Z,87.70
2019-05-30T10:04:02.464Z,86.60
2019-05-30T10:06:33.066Z,86.80
2019-05-30T10:09:03.689Z,86.70
2019-05-30T10:11:35.950Z,86.70
2019-05-30T10:14:09.372Z,86.60
2019-05-30T10:16:40.058Z,86.60
2019-05-30T10:19:11.484Z,85.80
2019-05-30T10:21:42.188Z,85.60
2019-05-30T10:24:12.817Z,85.90
2019-05-30T10:26:45.585Z,85.80
2019-05-30T10:29:16.904Z,84.60
2019-05-30T10:31:48.306Z,85.30
2019-05-30T10:34:19.288Z,84.60
2019-05-30T10:36:51.665Z,85.20
2019-05-30T10:39:22.254Z,84.70
2019-05-30T10:41:53.174Z,85.30
2019-05-30T10:44:26.755Z,85.80
2019-05-30T10:46:57.269Z,86.20
2019-05-30T10:49:34.712Z,86.60
2019-05-30T10:52:00.014Z,86.60
2019-05-30T10:54:30.487Z,85.50
2019-05-30T10:57:01.767Z,85.60
2019-05-30T10:59:32.750Z,85.90
2019-05-30T11:02:05.286Z,85.90
2019-05-30T11:04:36.243Z,86.00
2019-05-30T11:07:37.046Z,86.20
2019-05-30T11:10:13.007Z,86.60
2019-05-30T11:12:44.720Z,87.40
2019-05-30T11:15:16.029Z,87.30
2019-05-30T11:17:47.227Z,86.80
2019-05-30T11:20:21.979Z,86.50
2019-05-30T11:22:53.339Z,86.00
2019-05-30T11:25:24.855Z,85.70
2019-05-30T11:27:56.770Z,85.40
2019-05-30T11:30:28.072Z,85.50
2019-05-30T11:32:59.427Z,85.30
2019-05-30T11:35:30.815Z,85.30
2019-05-30T11:38:01.312Z,85.30
2019-05-30T11:40:31.846Z,84.70
2019-05-30T11:43:02.382Z,84.00
2019-05-30T11:45:34.927Z,83.70
2019-05-30T11:48:07.755Z,83.40
2019-05-30T11:50:38.260Z,83.10
2019-05-30T11:53:09.801Z,83.00
2019-05-30T11:55:40.300Z,82.40
2019-05-30T11:58:12.978Z,82.10
2019-05-30T12:00:43.586Z,82.30
2019-05-30T12:03:14.340Z,82.50
2019-05-30T12:05:45.364Z,82.30
2019-05-30T12:08:19.501Z,82.30
2019-05-30T12:10:51.105Z,82.40
2019-05-30T12:13:23.116Z,82.50
2019-05-30T12:15:53.668Z,82.10
2019-05-30T12:18:24.366Z,83.00
2019-05-30T12:20:55.714Z,82.60
2019-05-30T12:23:26.391Z,82.30
2019-05-30T12:25:57.955Z,82.50
2019-05-30T12:28:28.603Z,82.30
2019-05-30T12:31:04.253Z,83.10
2019-05-30T12:33:31.301Z,83.40
2019-05-30T12:36:02.673Z,84.50
2019-05-30T12:38:33.314Z,85.20
2019-05-30T12:41:03.863Z,84.00
2019-05-30T12:43:34.414Z,82.80
2019-05-30T12:46:05.137Z,81.40
2019-05-30T12:48:35.663Z,79.90
2019-05-30T12:51:06.181Z,78.20
2019-05-30T12:53:36.850Z,77.10
2019-05-30T12:56:07.550Z,76.30
2019-05-30T12:58:38.080Z,74.90
2019-05-30T13:01:09.001Z,75.10
2019-05-30T13:03:39.699Z,73.80
2019-05-30T13:06:10.833Z,73.10
2019-05-30T13:08:41.655Z,73.90
2019-05-30T13:11:12.264Z,74.20
2019-05-30T13:13:43.081Z,74.60
2019-05-30T13:16:17.983Z,75.40
2019-05-30T13:18:48.624Z,74.90
2019-05-30T13:21:19.227Z,78.90
2019-05-30T13:23:49.681Z,79.20
2019-05-30T13:26:20.187Z,77.80
2019-05-30T13:28:53.224Z,76.80
2019-05-30T13:31:23.746Z,74.90
2019-05-30T13:33:54.607Z,73.90
2019-05-30T13:36:25.198Z,73.10
2019-05-30T13:38:57.029Z,72.50
2019-05-30T13:41:27.631Z,70.80
2019-05-30T13:43:58.191Z,71.40
2019-05-30T13:46:28.667Z,71.50
2019-05-30T13:49:00.812Z,71.60
2019-05-30T13:51:31.483Z,71.70
2019-05-30T13:57:50.057Z,71.60
2019-05-30T14:00:22.573Z,72.60
2019-05-30T14:02:53.044Z,73.00
2019-05-30T14:05:23.782Z,73.10
2019-05-30T14:07:54.357Z,73.80
2019-05-30T14:10:24.984Z,73.70
2019-05-30T14:12:56.003Z,73.60
2019-05-30T14:15:30.962Z,74.30
2019-05-30T14:18:04.942Z,74.60
2019-05-30T14:20:37.711Z,75.30
2019-05-30T14:23:09.385Z,75.50
2019-05-30T14:25:40.023Z,75.80
2019-05-30T14:28:12.114Z,75.60
2019-05-30T14:30:47.379Z,76.00
2019-05-30T14:33:24.447Z,75.80
2019-05-30T14:35:56.175Z,75.70
2019-05-30T14:38:26.735Z,76.90
2019-05-30T14:40:59.204Z,78.40
2019-05-30T14:43:29.726Z,80.00
2019-05-30T14:46:04.212Z,79.00
2019-05-30T14:48:34.028Z,78.10
2019-05-30T14:51:04.914Z,76.70
2019-05-30T14:53:35.395Z,75.30
2019-05-30T14:56:06.939Z,74.10
2019-05-30T14:58:37.660Z,72.20
2019-05-30T15:01:09.356Z,71.30
2019-05-30T15:03:42.442Z,69.80
2019-05-30T15:06:15.880Z,66.80
2019-05-30T15:08:47.423Z,64.90
2019-05-30T15:11:18.115Z,64.10
2019-05-30T15:13:48.626Z,64.50
2019-05-30T15:16:22.699Z,65.40
2019-05-30T15:18:54.758Z,65.80
2019-05-30T15:21:25.505Z,66.60
2019-05-30T15:23:56.220Z,67.30
2019-05-30T15:26:35.130Z,68.30
2019-05-30T15:29:05.985Z,69.00
2019-05-30T15:31:39.282Z,70.00
2019-05-30T15:34:10.534Z,70.00
2019-05-30T15:36:44.611Z,70.70
2019-05-30T15:39:31.626Z,72.10
2019-05-30T15:41:47.334Z,72.50
2019-05-30T15:44:18.870Z,73.00
2019-05-30T15:46:49.439Z,71.90
2019-05-30T15:49:19.929Z,70.70
2019-05-30T15:51:50.959Z,70.60
2019-05-30T15:54:21.413Z,69.80
2019-05-30T15:56:53.153Z,69.20
2019-05-30T15:59:24.139Z,68.60
2019-05-30T16:01:54.774Z,69.00
2019-05-30T16:04:27.042Z,68.20
2019-05-30T16:06:57.781Z,69.10
2019-05-30T16:09:46.597Z,67.80
2019-05-30T16:12:11.305Z,66.50
2019-05-30T16:14:43.239Z,66.80
2019-05-30T16:17:13.961Z,64.40
2019-05-30T16:19:44.784Z,65.90
2019-05-30T16:22:16.252Z,64.20
2019-05-30T16:24:47.103Z,63.90
2019-05-30T16:27:17.827Z,63.50
2019-05-30T16:29:48.393Z,63.80
2019-05-30T16:32:20.241Z,65.20
2019-05-30T16:34:53.805Z,65.90
2019-05-30T16:37:26.412Z,66.10
2019-05-30T16:40:05.752Z,67.60
2019-05-30T16:42:29.161Z,66.60
2019-05-30T16:45:00.905Z,66.50
2019-05-30T16:47:31.919Z,65.30
2019-05-30T16:50:03.472Z,66.20
2019-05-30T16:52:34.278Z,65.80
2019-05-30T16:55:11.212Z,66.20
2019-05-30T16:57:42.275Z,66.80
2019-05-30T17:00:17.690Z,66.50
2019-05-30T17:02:55.173Z,66.80
2019-05-30T17:05:25.644Z,66.90
2019-05-30T17:07:56.237Z,67.10
2019-05-30T17:10:32.539Z,66.90
2019-05-30T17:13:02.799Z,67.30
2019-05-30T17:15:35.235Z,67.10
2019-05-30T17:18:06.127Z,67.10
2019-05-30T17:20:37.961Z,66.70
2019-05-30T17:23:08.641Z,65.70
2019-05-30T17:25:40.564Z,64.90
2019-05-30T17:28:20.226Z,64.00
2019-05-30T17:30:53.361Z,64.50
2019-05-30T17:33:33.918Z,65.30
2019-05-30T17:36:06.773Z,65.40
2019-05-30T17:38:37.337Z,65.30
2019-05-30T17:41:07.937Z,65.00
2019-05-30T17:43:39.076Z,64.20
2019-05-30T17:46:09.722Z,64.30
2019-05-30T17:48:51.858Z,64.30
2019-05-30T17:51:23.750Z,64.30
2019-05-30T17:53:54.457Z,64.80
2019-05-30T17:56:34.553Z,64.70
2019-05-30T17:59:26.611Z,64.70
2019-05-30T18:02:00.851Z,65.10
2019-05-30T18:04:30.836Z,65.80
2019-05-30T18:07:16.870Z,66.00
2019-05-30T18:09:50.650Z,66.10
2019-05-30T18:12:22.970Z,66.60
2019-05-30T18:14:55.170Z,66.90
2019-05-30T18:17:37.221Z,67.20
2019-05-30T18:20:16.599Z,67.50
2019-05-30T18:22:49.301Z,68.20
2019-05-30T18:25:23.968Z,68.60
2019-05-30T18:27:54.577Z,68.70
2019-05-30T18:30:39.535Z,69.20
2019-05-30T18:33:10.323Z,69.80
2019-05-30T18:35:41.227Z,70.90
2019-05-30T18:38:11.809Z,71.40
2019-05-30T18:41:10.274Z,71.90
2019-05-30T18:43:29.316Z,72.30
2019-05-30T18:46:00.854Z,73.10
2019-05-30T18:48:35.470Z,73.60
2019-05-30T18:51:07.261Z,74.10
2019-05-30T18:53:37.865Z,74.60
2019-05-30T18:56:09.623Z,75.00
2019-05-30T18:58:40.328Z,75.40
2019-05-30T19:01:10.860Z,76.00
2019-05-30T19:03:41.702Z,76.40
2019-05-30T19:06:15.866Z,76.90
2019-05-30T19:08:53.548Z,77.40
2019-05-30T19:11:30.948Z,77.60
2019-05-30T19:14:00.454Z,78.00
2019-05-30T19:16:32.327Z,78.50
2019-05-30T19:19:03.119Z,78.80
2019-05-30T19:21:38.195Z,79.00
2019-05-30T19:24:08.927Z,79.20
2019-05-30T19:26:39.876Z,79.50
2019-05-30T19:29:10.755Z,79.70
2019-05-30T19:31:41.630Z,80.00
2019-05-30T19:34:12.416Z,80.10
2019-05-30T19:36:43.209Z,80.50
2019-05-30T19:39:15.213Z,80.80
2019-05-30T19:41:56.893Z,81.10
2019-05-30T19:44:21.941Z,81.40
2019-05-30T19:47:04.297Z,82.60
2019-05-30T19:49:38.660Z,82.70
2019-05-30T19:52:15.914Z,82.10
2019-05-30T19:54:46.548Z,82.20
2019-05-30T19:57:18.385Z,82.40
2019-05-30T19:59:52.039Z,82.60
2019-05-30T20:02:23.405Z,82.80
2019-05-30T20:04:54.691Z,82.90
2019-05-30T20:07:26.781Z,83.10
2019-05-30T20:10:01.534Z,83.20
2019-05-30T20:12:54.358Z,83.40
2019-05-30T20:15:25.514Z,83.60
2019-05-30T20:18:10.483Z,83.70
2019-05-30T20:20:53.893Z,83.90
2019-05-30T20:23:15.562Z,83.90
2019-05-30T20:25:51.020Z,84.00
2019-05-30T20:28:28.270Z,84.10
2019-05-30T20:30:58.913Z,84.20
2019-05-30T20:33:57.661Z,84.30
2019-05-30T20:36:28.241Z,84.30
2019-05-30T20:38:59.127Z,84.60
2019-05-30T20:41:29.795Z,84.70
2019-05-30T20:44:00.594Z,85.00
2019-05-30T20:46:31.453Z,85.00
2019-05-30T20:49:03.433Z,85.20
2019-05-30T20:51:35.517Z,85.50
2019-05-30T20:54:06.599Z,85.60
2019-05-30T20:56:37.596Z,85.80
2019-05-30T20:59:10.189Z,86.10
2019-05-30T21:01:41.679Z,86.00
2019-05-30T21:04:12.691Z,86.10
2019-05-30T21:06:45.424Z,86.00
2019-05-30T21:09:28.384Z,86.90
2019-05-30T21:11:53.901Z,86.80
2019-05-30T21:14:27.647Z,86.20
2019-05-30T21:17:00.660Z,86.10
2019-05-30T21:19:33.714Z,86.00
2019-05-30T21:22:04.452Z,86.00
2019-05-30T21:24:36.374Z,86.10
2019-05-30T21:27:07.595Z,86.00
2019-05-30T21:29:38.922Z,86.00
2019-05-30T21:32:09.745Z,86.00
2019-05-30T21:34:42.017Z,86.10
2019-05-30T21:37:12.657Z,86.20
2019-05-30T21:39:44.078Z,86.10
2019-05-30T21:42:14.842Z,86.20
2019-05-30T21:47:18.292Z,86.20
2019-05-30T21:47:39.487Z,86.20
2019-05-30T21:49:49.193Z,86.20
2019-05-30T21:52:20.865Z,86.10
2019-05-30T21:54:51.714Z,86.20
2019-05-30T21:57:22.169Z,86.20
2019-05-30T21:59:52.730Z,86.20
2019-05-30T22:02:23.433Z,86.20
2019-05-30T22:04:53.952Z,86.20
2019-05-30T22:07:24.608Z,86.20
2019-05-30T22:09:55.537Z,86.20
2019-05-30T22:12:26.228Z,86.20
2019-05-30T22:14:56.906Z,86.20
2019-05-30T22:17:27.655Z,86.10
2019-05-30T22:19:58.609Z,87.00
2019-05-30T22:22:29.078Z,86.40
2019-05-30T22:24:59.564Z,86.30
2019-05-30T22:27:30.013Z,86.40
2019-05-30T22:30:00.493Z,86.40
2019-05-30T22:32:30.932Z,86.40
2019-05-30T22:35:01.495Z,86.50
2019-05-30T22:37:31.998Z,86.70
2019-05-30T22:40:02.508Z,86.80
2019-05-30T22:42:33.087Z,86.90
2019-05-30T22:45:03.690Z,86.90
2019-05-30T22:47:35.788Z,87.00
2019-05-30T22:50:06.766Z,87.20
2019-05-30T22:52:37.529Z,87.20
2019-05-30T22:55:08.701Z,87.30
2019-05-30T22:57:39.408Z,87.50
2019-05-30T23:00:10.481Z,87.30
2019-05-30T23:02:40.941Z,87.50
2019-05-30T23:05:11.565Z,87.30
2019-05-30T23:07:42.041Z,87.40
2019-05-30T23:10:12.998Z,87.50
2019-05-30T23:12:44.138Z,87.50
2019-05-30T23:15:15.024Z,87.50
2019-05-30T23:17:46.269Z,87.50
2019-05-30T23:20:18.392Z,87.30
2019-05-30T23:22:48.881Z,87.50
2019-05-30T23:25:20.440Z,87.50
2019-05-30T23:27:51.518Z,87.40
2019-05-30T23:30:22.231Z,87.50
2019-05-30T23:32:52.698Z,87.40
2019-05-30T23:35:23.413Z,87.50
2019-05-30T23:37:54.703Z,87.50
2019-05-30T23:40:25.338Z,87.30
2019-05-30T23:42:55.823Z,87.30
2019-05-30T23:45:26.327Z,87.30
2019-05-30T23:47:57.679Z,87.40
2019-05-30T23:50:28.272Z,87.40
2019-05-30T23:52:58.909Z,88.20
2019-05-30T23:55:29.417Z,87.30
2019-05-30T23:58:00.810Z,87.40
